Delta, Canada
Current Conditions -  °F | °C
As of 3:48 PM on Wednesday 22 Oct 2014 (Local Time) from CYVR Reporting Station
Overcast Overcast  
Wind Chill: 57°   Ceiling: 7600
Heat Index: 57°   Visibility: 15mi
Dew Point: 54°   Wind: 13mph
Humidity: 88%   Direction: 120°ESE
Pressure: 29.61"   Gusts: 21mph
Location:  49.09°N, 123.06°W
Report Text: CYVR 222248Z 12011G18KT 15SM FEW008 SCT011 BKN076 OVC190 14/12 A2961 RMK SF1SC3AC1AC3 SLP025 DENSITY ALT 200FT
Loading
Personal Weather Stations






























Interactive Weather Map
Tropical Storm Tracking
New forecast layout! Learn more

10-Day Weather Forecast

Advertisements
Track Severe Weather on mobile